sensor_id;sensor_type;location;lat;lon;timestamp;pressure;altitude;pressure_sealevel;temperature;humidity
30873;BME280;17579;42.690;2.586;2023-04-19T00:00:55;97037.34;;;14.73;38.33
30873;BME280;17579;42.690;2.586;2023-04-19T00:03:26;97036.50;;;14.72;38.50
30873;BME280;17579;42.690;2.586;2023-04-19T00:05:52;97043.84;;;14.70;38.78
30873;BME280;17579;42.690;2.586;2023-04-19T00:08:19;97041.03;;;14.64;39.03
30873;BME280;17579;42.690;2.586;2023-04-19T00:10:45;97040.53;;;14.60;39.25
30873;BME280;17579;42.690;2.586;2023-04-19T00:13:11;97041.53;;;14.59;39.52
30873;BME280;17579;42.690;2.586;2023-04-19T00:15:37;97038.88;;;14.59;39.39
30873;BME280;17579;42.690;2.586;2023-04-19T00:18:16;97032.75;;;14.59;39.43
30873;BME280;17579;42.690;2.586;2023-04-19T00:20:43;97041.72;;;14.58;39.74
30873;BME280;17579;42.690;2.586;2023-04-19T00:23:29;97035.41;;;14.59;39.83
30873;BME280;17579;42.690;2.586;2023-04-19T00:26:03;97035.75;;;14.55;39.86
30873;BME280;17579;42.690;2.586;2023-04-19T00:28:29;97026.63;;;14.50;39.76
30873;BME280;17579;42.690;2.586;2023-04-19T00:30:58;97032.50;;;14.45;39.82
30873;BME280;17579;42.690;2.586;2023-04-19T00:33:26;97035.19;;;14.37;39.90
30873;BME280;17579;42.690;2.586;2023-04-19T00:36:33;97034.25;;;14.21;39.47
30873;BME280;17579;42.690;2.586;2023-04-19T00:38:59;97038.59;;;14.23;40.45
30873;BME280;17579;42.690;2.586;2023-04-19T00:41:24;97037.44;;;14.17;40.32
30873;BME280;17579;42.690;2.586;2023-04-19T00:44:16;97037.78;;;14.14;40.31
30873;BME280;17579;42.690;2.586;2023-04-19T00:46:42;97040.47;;;14.14;40.92
30873;BME280;17579;42.690;2.586;2023-04-19T00:49:11;97037.66;;;14.07;40.81
30873;BME280;17579;42.690;2.586;2023-04-19T00:51:39;97035.63;;;14.09;41.11
30873;BME280;17579;42.690;2.586;2023-04-19T00:54:08;97037.31;;;14.02;41.60
30873;BME280;17579;42.690;2.586;2023-04-19T00:56:37;97031.38;;;14.00;41.60
30873;BME280;17579;42.690;2.586;2023-04-19T00:59:03;97033.69;;;13.95;42.26
30873;BME280;17579;42.690;2.586;2023-04-19T01:01:32;97035.88;;;13.91;42.75
30873;BME280;17579;42.690;2.586;2023-04-19T01:04:03;97015.13;;;13.86;42.92
30873;BME280;17579;42.690;2.586;2023-04-19T01:06:37;97019.94;;;13.91;43.77
30873;BME280;17579;42.690;2.586;2023-04-19T01:09:07;97023.59;;;13.90;43.71
30873;BME280;17579;42.690;2.586;2023-04-19T01:11:33;97027.22;;;13.89;44.40
30873;BME280;17579;42.690;2.586;2023-04-19T01:13:59;97023.09;;;13.86;44.75
30873;BME280;17579;42.690;2.586;2023-04-19T01:16:28;97024.91;;;13.86;45.04
30873;BME280;17579;42.690;2.586;2023-04-19T01:19:06;97027.41;;;13.88;44.91
30873;BME280;17579;42.690;2.586;2023-04-19T01:21:36;97018.44;;;13.89;45.33
30873;BME280;17579;42.690;2.586;2023-04-19T01:24:06;97019.75;;;13.93;45.58
30873;BME280;17579;42.690;2.586;2023-04-19T01:26:44;97016.91;;;13.94;44.95
30873;BME280;17579;42.690;2.586;2023-04-19T01:29:14;97015.94;;;13.95;45.47
30873;BME280;17579;42.690;2.586;2023-04-19T01:31:49;97026.03;;;14.00;45.93
30873;BME280;17579;42.690;2.586;2023-04-19T01:34:19;97019.91;;;13.99;45.67
30873;BME280;17579;42.690;2.586;2023-04-19T01:36:48;97013.56;;;14.00;46.37
30873;BME280;17579;42.690;2.586;2023-04-19T01:39:13;97009.91;;;14.01;46.36
30873;BME280;17579;42.690;2.586;2023-04-19T01:41:39;97009.91;;;14.01;46.38
30873;BME280;17579;42.690;2.586;2023-04-19T01:44:08;97012.09;;;13.98;45.94
30873;BME280;17579;42.690;2.586;2023-04-19T01:46:52;97012.78;;;13.92;45.23
30873;BME280;17579;42.690;2.586;2023-04-19T01:49:19;97009.28;;;13.99;46.60
30873;BME280;17579;42.690;2.586;2023-04-19T01:52:04;97004.44;;;13.95;46.00
30873;BME280;17579;42.690;2.586;2023-04-19T01:54:40;97007.44;;;14.00;46.62
30873;BME280;17579;42.690;2.586;2023-04-19T01:57:11;97001.78;;;13.95;45.97
30873;BME280;17579;42.690;2.586;2023-04-19T01:59:37;97003.81;;;13.93;47.05
30873;BME280;17579;42.690;2.586;2023-04-19T02:02:06;97000.00;;;13.87;46.75
30873;BME280;17579;42.690;2.586;2023-04-19T02:04:34;97002.00;;;13.85;46.97
30873;BME280;17579;42.690;2.586;2023-04-19T02:07:01;96996.38;;;13.80;46.98
30873;BME280;17579;42.690;2.586;2023-04-19T02:09:34;97000.06;;;13.71;46.30
30873;BME280;17579;42.690;2.586;2023-04-19T02:12:08;96994.44;;;13.65;46.39
30873;BME280;17579;42.690;2.586;2023-04-19T02:14:59;96997.41;;;13.71;47.15
30873;BME280;17579;42.690;2.586;2023-04-19T02:17:37;96990.94;;;13.65;46.94
30873;BME280;17579;42.690;2.586;2023-04-19T02:20:07;96997.91;;;13.66;47.19
30873;BME280;17579;42.690;2.586;2023-04-19T02:22:35;96996.44;;;13.63;47.56
30873;BME280;17579;42.690;2.586;2023-04-19T02:25:01;97000.91;;;13.63;47.76
30873;BME280;17579;42.690;2.586;2023-04-19T02:27:30;96992.63;;;13.58;47.79
30873;BME280;17579;42.690;2.586;2023-04-19T02:29:59;96998.44;;;13.53;47.49
30873;BME280;17579;42.690;2.586;2023-04-19T02:32:26;96995.66;;;13.46;47.25
30873;BME280;17579;42.690;2.586;2023-04-19T02:35:34;96993.00;;;13.38;46.51
30873;BME280;17579;42.690;2.586;2023-04-19T02:38:23;96994.31;;;13.42;47.75
30873;BME280;17579;42.690;2.586;2023-04-19T02:41:09;96989.00;;;13.26;46.66
30873;BME280;17579;42.690;2.586;2023-04-19T02:44:00;96983.19;;;13.30;47.00
30873;BME280;17579;42.690;2.586;2023-04-19T02:46:26;96982.53;;;13.28;47.67
30873;BME280;17579;42.690;2.586;2023-04-19T02:49:00;96983.38;;;13.21;46.85
30873;BME280;17579;42.690;2.586;2023-04-19T02:51:26;96983.22;;;13.14;47.66
30873;BME280;17579;42.690;2.586;2023-04-19T02:53:57;96982.91;;;13.09;48.06
30873;BME280;17579;42.690;2.586;2023-04-19T02:56:25;96985.03;;;13.05;48.10
30873;BME280;17579;42.690;2.586;2023-04-19T02:58:52;96984.22;;;13.05;48.52
30873;BME280;17579;42.690;2.586;2023-04-19T03:01:19;96984.41;;;13.03;48.75
30873;BME280;17579;42.690;2.586;2023-04-19T03:03:45;96975.41;;;13.04;48.92
30873;BME280;17579;42.690;2.586;2023-04-19T03:06:13;96975.59;;;13.03;48.66
30873;BME280;17579;42.690;2.586;2023-04-19T03:08:41;96976.44;;;13.03;48.55
30873;BME280;17579;42.690;2.586;2023-04-19T03:11:18;96980.06;;;13.02;48.90
30873;BME280;17579;42.690;2.586;2023-04-19T03:13:43;96986.03;;;13.04;48.89
30873;BME280;17579;42.690;2.586;2023-04-19T03:16:12;96981.56;;;13.05;49.14
30873;BME280;17579;42.690;2.586;2023-04-19T03:18:38;96977.91;;;13.06;48.86
30873;BME280;17579;42.690;2.586;2023-04-19T03:21:03;96985.38;;;13.02;48.61
30873;BME280;17579;42.690;2.586;2023-04-19T03:23:38;96977.59;;;12.92;48.02
30873;BME280;17579;42.690;2.586;2023-04-19T03:26:13;96978.28;;;12.94;48.52
30873;BME280;17579;42.690;2.586;2023-04-19T03:28:42;96978.75;;;12.90;48.61
30873;BME280;17579;42.690;2.586;2023-04-19T03:31:10;96981.09;;;12.85;48.44
30873;BME280;17579;42.690;2.586;2023-04-19T03:33:39;96975.94;;;12.83;48.57
30873;BME280;17579;42.690;2.586;2023-04-19T03:36:08;96969.31;;;12.79;48.75
30873;BME280;17579;42.690;2.586;2023-04-19T03:38:36;96972.31;;;12.76;48.78
30873;BME280;17579;42.690;2.586;2023-04-19T03:41:23;96978.41;;;12.68;48.23
30873;BME280;17579;42.690;2.586;2023-04-19T03:43:52;96974.28;;;12.74;49.04
30873;BME280;17579;42.690;2.586;2023-04-19T03:46:17;96976.28;;;12.72;49.24
30873;BME280;17579;42.690;2.586;2023-04-19T03:48:43;96979.25;;;12.69;49.16
30873;BME280;17579;42.690;2.586;2023-04-19T03:51:09;96980.25;;;12.68;49.06
30873;BME280;17579;42.690;2.586;2023-04-19T03:56:31;96987.22;;;12.69;49.55
30873;BME280;17579;42.690;2.586;2023-04-19T03:58:57;96991.84;;;12.67;49.44
30873;BME280;17579;42.690;2.586;2023-04-19T04:01:23;96981.41;;;12.65;49.43
30873;BME280;17579;42.690;2.586;2023-04-19T04:03:55;96983.56;;;12.61;48.82
30873;BME280;17579;42.690;2.586;2023-04-19T04:06:21;96986.22;;;12.61;49.08
30873;BME280;17579;42.690;2.586;2023-04-19T04:08:49;96989.03;;;12.60;48.98
30873;BME280;17579;42.690;2.586;2023-04-19T04:11:21;96985.06;;;12.56;49.24
30873;BME280;17579;42.690;2.586;2023-04-19T04:13:47;96988.19;;;12.59;49.74
30873;BME280;17579;42.690;2.586;2023-04-19T04:16:31;96986.84;;;12.55;49.08
30873;BME280;17579;42.690;2.586;2023-04-19T04:19:17;96997.50;;;12.63;49.31
30873;BME280;17579;42.690;2.586;2023-04-19T04:21:46;96992.69;;;12.59;49.64
30873;BME280;17579;42.690;2.586;2023-04-19T04:24:22;96988.84;;;12.53;49.68
30873;BME280;17579;42.690;2.586;2023-04-19T04:26:57;96988.53;;;12.56;50.16
30873;BME280;17579;42.690;2.586;2023-04-19T04:29:25;96991.19;;;12.56;50.35
30873;BME280;17579;42.690;2.586;2023-04-19T04:31:56;96999.13;;;12.56;50.45
30873;BME280;17579;42.690;2.586;2023-04-19T04:34:22;96998.31;;;12.56;50.32
30873;BME280;17579;42.690;2.586;2023-04-19T04:36:49;97001.78;;;12.56;50.41
30873;BME280;17579;42.690;2.586;2023-04-19T04:39:17;97005.25;;;12.57;50.59
30873;BME280;17579;42.690;2.586;2023-04-19T04:41:43;96999.31;;;12.55;50.70
30873;BME280;17579;42.690;2.586;2023-04-19T04:44:09;97010.91;;;12.54;50.63
30873;BME280;17579;42.690;2.586;2023-04-19T04:46:35;97003.94;;;12.53;50.55
30873;BME280;17579;42.690;2.586;2023-04-19T04:49:06;97007.75;;;12.50;51.28
30873;BME280;17579;42.690;2.586;2023-04-19T04:51:35;97013.22;;;12.48;50.88
30873;BME280;17579;42.690;2.586;2023-04-19T04:54:01;97011.22;;;12.51;51.16
30873;BME280;17579;42.690;2.586;2023-04-19T04:56:32;97009.56;;;12.50;51.48
30873;BME280;17579;42.690;2.586;2023-04-19T04:59:01;97002.44;;;12.50;51.05
30873;BME280;17579;42.690;2.586;2023-04-19T05:01:37;97003.94;;;12.53;50.83
30873;BME280;17579;42.690;2.586;2023-04-19T05:04:06;97005.94;;;12.51;51.50
30873;BME280;17579;42.690;2.586;2023-04-19T05:06:32;97012.22;;;12.50;51.37
30873;BME280;17579;42.690;2.586;2023-04-19T05:09:03;97008.09;;;12.47;51.12
30873;BME280;17579;42.690;2.586;2023-04-19T05:11:32;97013.69;;;12.44;51.18
30873;BME280;17579;42.690;2.586;2023-04-19T05:13:58;97016.34;;;12.44;51.29
30873;BME280;17579;42.690;2.586;2023-04-19T05:16:28;97018.19;;;12.43;51.03
30873;BME280;17579;42.690;2.586;2023-04-19T05:18:57;97021.97;;;12.41;50.98
30873;BME280;17579;42.690;2.586;2023-04-19T05:21:23;97025.16;;;12.44;52.01
30873;BME280;17579;42.690;2.586;2023-04-19T05:23:58;97022.00;;;12.49;51.95
30873;BME280;17579;42.690;2.586;2023-04-19T05:26:24;97023.00;;;12.56;52.65
30873;BME280;17579;42.690;2.586;2023-04-19T05:28:55;97018.06;;;12.61;53.21
30873;BME280;17579;42.690;2.586;2023-04-19T05:31:24;97022.19;;;12.64;52.75
30873;BME280;17579;42.690;2.586;2023-04-19T05:33:53;97017.41;;;12.68;52.54
30873;BME280;17579;42.690;2.586;2023-04-19T05:36:29;97022.19;;;12.72;52.76
30873;BME280;17579;42.690;2.586;2023-04-19T05:38:54;97022.88;;;12.74;52.95
30873;BME280;17579;42.690;2.586;2023-04-19T05:41:23;97030.50;;;12.77;53.17
30873;BME280;17579;42.690;2.586;2023-04-19T05:43:52;97023.88;;;12.81;53.54
30873;BME280;17579;42.690;2.586;2023-04-19T05:46:22;97025.34;;;12.84;53.12
30873;BME280;17579;42.690;2.586;2023-04-19T05:48:48;97027.03;;;12.93;53.85
30873;BME280;17579;42.690;2.586;2023-04-19T05:51:13;97038.50;;;13.02;53.72
30873;BME280;17579;42.690;2.586;2023-04-19T05:53:41;97030.34;;;13.12;54.03
30873;BME280;17579;42.690;2.586;2023-04-19T05:56:07;97029.03;;;13.16;54.09
30873;BME280;17579;42.690;2.586;2023-04-19T05:58:36;97033.66;;;13.22;54.19
30873;BME280;17579;42.690;2.586;2023-04-19T06:01:07;97033.00;;;13.28;53.58
30873;BME280;17579;42.690;2.586;2023-04-19T06:03:33;97038.16;;;13.38;54.61
30873;BME280;17579;42.690;2.586;2023-04-19T06:06:25;97041.47;;;13.40;53.29
30873;BME280;17579;42.690;2.586;2023-04-19T06:08:54;97043.28;;;13.56;54.28
30873;BME280;17579;42.690;2.586;2023-04-19T06:11:23;97039.78;;;13.64;54.35
30873;BME280;17579;42.690;2.586;2023-04-19T06:13:49;97038.63;;;13.66;54.26
30873;BME280;17579;42.690;2.586;2023-04-19T06:16:22;97044.06;;;13.73;54.43
30873;BME280;17579;42.690;2.586;2023-04-19T06:18:47;97045.56;;;13.76;54.27
30873;BME280;17579;42.690;2.586;2023-04-19T06:21:18;97045.72;;;13.74;53.77
30873;BME280;17579;42.690;2.586;2023-04-19T06:23:44;97046.06;;;13.79;54.59
30873;BME280;17579;42.690;2.586;2023-04-19T06:26:13;97044.22;;;13.80;54.36
30873;BME280;17579;42.690;2.586;2023-04-19T06:28:38;97046.06;;;13.79;55.33
30873;BME280;17579;42.690;2.586;2023-04-19T06:31:07;97047.22;;;13.77;55.32
30873;BME280;17579;42.690;2.586;2023-04-19T06:33:33;97047.06;;;13.78;55.75
30873;BME280;17579;42.690;2.586;2023-04-19T06:35:58;97048.72;;;13.79;55.70
30873;BME280;17579;42.690;2.586;2023-04-19T06:41:14;97046.38;;;13.76;56.00
30873;BME280;17579;42.690;2.586;2023-04-19T06:43:40;97050.06;;;13.75;56.27
30873;BME280;17579;42.690;2.586;2023-04-19T06:46:07;97050.22;;;13.74;56.19
30873;BME280;17579;42.690;2.586;2023-04-19T06:48:46;97047.41;;;13.75;55.98
30873;BME280;17579;42.690;2.586;2023-04-19T06:51:11;97054.84;;;13.88;56.39
30873;BME280;17579;42.690;2.586;2023-04-19T06:56:39;97055.63;;;14.05;55.25
30873;BME280;17579;42.690;2.586;2023-04-19T06:59:13;97058.72;;;14.17;55.86
30873;BME280;17579;42.690;2.586;2023-04-19T07:01:41;97051.88;;;14.23;55.67
30873;BME280;17579;42.690;2.586;2023-04-19T07:04:17;97053.53;;;14.24;55.33
30873;BME280;17579;42.690;2.586;2023-04-19T07:06:48;97062.47;;;14.31;55.33
30873;BME280;17579;42.690;2.586;2023-04-19T07:09:23;97054.81;;;14.36;55.62
30873;BME280;17579;42.690;2.586;2023-04-19T07:11:51;97055.94;;;14.42;55.38
30873;BME280;17579;42.690;2.586;2023-04-19T07:14:49;97055.31;;;14.40;54.75
30873;BME280;17579;42.690;2.586;2023-04-19T07:17:29;97046.56;;;14.54;55.34
30873;BME280;17579;42.690;2.586;2023-04-19T07:19:58;97046.03;;;14.59;55.52
30873;BME280;17579;42.690;2.586;2023-04-19T07:22:24;97049.19;;;14.62;55.43
30873;BME280;17579;42.690;2.586;2023-04-19T07:24:49;97054.03;;;14.67;55.56
30873;BME280;17579;42.690;2.586;2023-04-19T07:27:18;97057.31;;;14.69;55.48
30873;BME280;17579;42.690;2.586;2023-04-19T07:29:47;97059.44;;;14.73;54.91
30873;BME280;17579;42.690;2.586;2023-04-19T07:32:18;97059.44;;;15.20;55.18
30873;BME280;17579;42.690;2.586;2023-04-19T07:34:47;97059.38;;;15.66;55.10
30873;BME280;17579;42.690;2.586;2023-04-19T07:37:16;97061.47;;;15.56;54.31
30873;BME280;17579;42.690;2.586;2023-04-19T07:39:47;97067.94;;;15.38;54.12
30873;BME280;17579;42.690;2.586;2023-04-19T07:42:23;97060.56;;;15.25;54.39
30873;BME280;17579;42.690;2.586;2023-04-19T07:45:05;97059.81;;;15.17;54.47
30873;BME280;17579;42.690;2.586;2023-04-19T07:47:31;97066.06;;;15.24;54.89
30873;BME280;17579;42.690;2.586;2023-04-19T07:52:52;97065.72;;;15.65;54.68
30873;BME280;17579;42.690;2.586;2023-04-19T07:55:18;97067.19;;;15.68;54.36
30873;BME280;17579;42.690;2.586;2023-04-19T07:57:47;97068.00;;;15.53;54.10
30873;BME280;17579;42.690;2.586;2023-04-19T08:00:17;97067.69;;;15.48;54.33
30873;BME280;17579;42.690;2.586;2023-04-19T08:02:44;97071.84;;;15.51;54.35
30873;BME280;17579;42.690;2.586;2023-04-19T08:05:13;97062.75;;;15.60;54.03
30873;BME280;17579;42.690;2.586;2023-04-19T08:07:41;97065.09;;;15.78;54.49
30873;BME280;17579;42.690;2.586;2023-04-19T08:10:07;97066.31;;;16.20;53.84
30873;BME280;17579;42.690;2.586;2023-04-19T08:12:36;97069.63;;;16.22;53.55
30873;BME280;17579;42.690;2.586;2023-04-19T08:15:06;97063.63;;;16.35;53.34
30873;BME280;17579;42.690;2.586;2023-04-19T08:17:43;97060.69;;;16.30;52.80
30873;BME280;17579;42.690;2.586;2023-04-19T08:23:16;97063.44;;;16.73;53.06
30873;BME280;17579;42.690;2.586;2023-04-19T08:25:42;97048.03;;;17.12;52.56
30873;BME280;17579;42.690;2.586;2023-04-19T08:28:22;97057.44;;;17.29;51.53
30873;BME280;17579;42.690;2.586;2023-04-19T08:30:53;97054.38;;;17.54;51.10
30873;BME280;17579;42.690;2.586;2023-04-19T08:33:19;97054.13;;;17.77;50.41
30873;BME280;17579;42.690;2.586;2023-04-19T08:35:44;97063.94;;;17.98;49.83
30873;BME280;17579;42.690;2.586;2023-04-19T08:38:12;97063.38;;;18.03;49.64
30873;BME280;17579;42.690;2.586;2023-04-19T08:40:46;97063.97;;;18.05;49.19
30873;BME280;17579;42.690;2.586;2023-04-19T08:43:24;97069.38;;;17.83;48.91
30873;BME280;17579;42.690;2.586;2023-04-19T08:45:57;97062.88;;;17.64;49.25
30873;BME280;17579;42.690;2.586;2023-04-19T08:48:24;97067.75;;;17.89;49.77
30873;BME280;17579;42.690;2.586;2023-04-19T08:51:11;97064.78;;;17.99;49.64
30873;BME280;17579;42.690;2.586;2023-04-19T08:53:38;97055.63;;;18.22;49.38
30873;BME280;17579;42.690;2.586;2023-04-19T08:56:06;97059.25;;;18.49;49.20
30873;BME280;17579;42.690;2.586;2023-04-19T08:58:41;97063.84;;;18.68;48.91
30873;BME280;17579;42.690;2.586;2023-04-19T09:01:16;97057.50;;;18.76;48.25
30873;BME280;17579;42.690;2.586;2023-04-19T09:03:44;97061.41;;;18.74;48.27
30873;BME280;17579;42.690;2.586;2023-04-19T09:06:15;97064.47;;;18.77;48.32
30873;BME280;17579;42.690;2.586;2023-04-19T09:11:37;97063.91;;;18.33;48.20
30873;BME280;17579;42.690;2.586;2023-04-19T09:14:07;97066.19;;;18.37;48.53
30873;BME280;17579;42.690;2.586;2023-04-19T09:16:36;97068.50;;;18.46;48.33
30873;BME280;17579;42.690;2.586;2023-04-19T09:19:05;97057.34;;;18.43;47.93
30873;BME280;17579;42.690;2.586;2023-04-19T09:21:41;97063.91;;;18.33;47.90
30873;BME280;17579;42.690;2.586;2023-04-19T09:24:12;97064.13;;;18.39;47.80
30873;BME280;17579;42.690;2.586;2023-04-19T09:26:53;97060.00;;;18.29;48.01
30873;BME280;17579;42.690;2.586;2023-04-19T09:29:21;97065.78;;;18.40;48.38
30873;BME280;17579;42.690;2.586;2023-04-19T09:31:57;97069.28;;;18.40;48.46
30873;BME280;17579;42.690;2.586;2023-04-19T09:34:26;97060.47;;;18.46;48.31
30873;BME280;17579;42.690;2.586;2023-04-19T09:37:17;97057.41;;;18.49;48.67
30873;BME280;17579;42.690;2.586;2023-04-19T09:39:43;97059.69;;;18.59;47.51
30873;BME280;17579;42.690;2.586;2023-04-19T09:42:09;97061.53;;;18.52;47.45
30873;BME280;17579;42.690;2.586;2023-04-19T09:44:38;97052.03;;;18.49;47.37
30873;BME280;17579;42.690;2.586;2023-04-19T09:47:27;97034.53;;;18.53;48.20
30873;BME280;17579;42.690;2.586;2023-04-19T09:50:10;97039.31;;;18.72;47.73
30873;BME280;17579;42.690;2.586;2023-04-19T09:52:36;97038.72;;;18.69;46.26
30873;BME280;17579;42.690;2.586;2023-04-19T09:55:11;97032.47;;;18.49;47.29
30873;BME280;17579;42.690;2.586;2023-04-19T09:57:39;97036.66;;;18.65;46.83
30873;BME280;17579;42.690;2.586;2023-04-19T10:00:08;97029.25;;;18.80;46.69
30873;BME280;17579;42.690;2.586;2023-04-19T10:02:41;97021.84;;;18.82;46.65
30873;BME280;17579;42.690;2.586;2023-04-19T10:05:09;97027.19;;;18.82;46.23
30873;BME280;17579;42.690;2.586;2023-04-19T10:07:36;97019.97;;;18.76;46.06
30873;BME280;17579;42.690;2.586;2023-04-19T10:10:02;97025.53;;;18.81;45.98
30873;BME280;17579;42.690;2.586;2023-04-19T10:12:30;97023.69;;;18.75;45.46
30873;BME280;17579;42.690;2.586;2023-04-19T10:15:08;97016.25;;;18.77;46.17
30873;BME280;17579;42.690;2.586;2023-04-19T10:17:54;97027.88;;;18.98;45.80
30873;BME280;17579;42.690;2.586;2023-04-19T10:20:46;97022.91;;;18.95;46.02
30873;BME280;17579;42.690;2.586;2023-04-19T10:23:14;97017.16;;;19.04;46.45
30873;BME280;17579;42.690;2.586;2023-04-19T10:25:46;97016.16;;;19.12;46.62
30873;BME280;17579;42.690;2.586;2023-04-19T10:28:14;97010.97;;;19.24;45.95
30873;BME280;17579;42.690;2.586;2023-04-19T10:33:24;97004.38;;;19.33;46.14
30873;BME280;17579;42.690;2.586;2023-04-19T10:38:57;97006.66;;;19.30;45.68
30873;BME280;17579;42.690;2.586;2023-04-19T10:41:23;96996.31;;;19.40;46.05
30873;BME280;17579;42.690;2.586;2023-04-19T10:48:57;96997.75;;;19.49;45.99
30873;BME280;17579;42.690;2.586;2023-04-19T10:51:27;96993.41;;;19.55;45.94
30873;BME280;17579;42.690;2.586;2023-04-19T10:54:12;96990.09;;;19.66;46.37
30873;BME280;17579;42.690;2.586;2023-04-19T10:57:02;96990.47;;;19.77;45.69
30873;BME280;17579;42.690;2.586;2023-04-19T10:59:32;96990.47;;;19.77;45.44
30873;BME280;17579;42.690;2.586;2023-04-19T11:02:03;96992.78;;;19.73;45.74
30873;BME280;17579;42.690;2.586;2023-04-19T11:04:56;96983.69;;;19.81;45.21
30873;BME280;17579;42.690;2.586;2023-04-19T11:07:21;96979.78;;;19.70;45.61
30873;BME280;17579;42.690;2.586;2023-04-19T11:09:48;96977.31;;;19.68;46.15
30873;BME280;17579;42.690;2.586;2023-04-19T11:12:19;96980.81;;;19.76;45.82
30873;BME280;17579;42.690;2.586;2023-04-19T11:14:52;96979.78;;;19.83;45.63
30873;BME280;17579;42.690;2.586;2023-04-19T11:17:19;96975.63;;;19.87;45.26
30873;BME280;17579;42.690;2.586;2023-04-19T11:20:00;96969.25;;;19.88;45.54
30873;BME280;17579;42.690;2.586;2023-04-19T11:24:53;96969.03;;;19.90;45.41
30873;BME280;17579;42.690;2.586;2023-04-19T11:27:44;96962.59;;;19.91;45.33
30873;BME280;17579;42.690;2.586;2023-04-19T11:30:14;96962.81;;;19.96;45.43
30873;BME280;17579;42.690;2.586;2023-04-19T11:32:43;96966.06;;;20.05;45.26
30873;BME280;17579;42.690;2.586;2023-04-19T11:35:13;96949.16;;;20.04;44.97
30873;BME280;17579;42.690;2.586;2023-04-19T11:37:39;96961.94;;;20.09;44.67
30873;BME280;17579;42.690;2.586;2023-04-19T11:40:13;96959.47;;;20.07;45.16
30873;BME280;17579;42.690;2.586;2023-04-19T11:42:43;96949.31;;;20.10;45.51
30873;BME280;17579;42.690;2.586;2023-04-19T11:45:12;96952.19;;;20.21;45.25
30873;BME280;17579;42.690;2.586;2023-04-19T11:48:01;96944.53;;;20.18;45.06
30873;BME280;17579;42.690;2.586;2023-04-19T11:50:35;96948.28;;;20.17;45.30
30873;BME280;17579;42.690;2.586;2023-04-19T11:55:33;96945.22;;;20.07;45.17
30873;BME280;17579;42.690;2.586;2023-04-19T11:58:02;96941.53;;;20.01;45.51
30873;BME280;17579;42.690;2.586;2023-04-19T12:00:30;96938.22;;;19.99;45.30
30873;BME280;17579;42.690;2.586;2023-04-19T12:02:58;96935.47;;;20.13;45.85
30873;BME280;17579;42.690;2.586;2023-04-19T12:05:27;96940.16;;;20.24;45.11
30873;BME280;17579;42.690;2.586;2023-04-19T12:08:10;96932.88;;;20.38;45.15
30873;BME280;17579;42.690;2.586;2023-04-19T12:10:54;96922.72;;;20.40;44.95
30873;BME280;17579;42.690;2.586;2023-04-19T12:13:21;96940.25;;;20.49;43.83
30873;BME280;17579;42.690;2.586;2023-04-19T12:15:46;96936.16;;;20.40;43.74
30873;BME280;17579;42.690;2.586;2023-04-19T12:18:13;96929.00;;;20.27;43.80
30873;BME280;17579;42.690;2.586;2023-04-19T12:23:07;96930.38;;;20.43;44.17
30873;BME280;17579;42.690;2.586;2023-04-19T12:25:55;96917.16;;;20.41;43.74
30873;BME280;17579;42.690;2.586;2023-04-19T12:28:24;96916.94;;;20.43;44.10
30873;BME280;17579;42.690;2.586;2023-04-19T12:30:53;96918.56;;;20.44;43.33
30873;BME280;17579;42.690;2.586;2023-04-19T12:33:27;96920.03;;;20.40;44.01
30873;BME280;17579;42.690;2.586;2023-04-19T12:35:53;96912.75;;;20.47;43.61
30873;BME280;17579;42.690;2.586;2023-04-19T12:38:19;96907.34;;;20.54;43.90
30873;BME280;17579;42.690;2.586;2023-04-19T12:40:45;96911.66;;;20.62;43.10
30873;BME280;17579;42.690;2.586;2023-04-19T12:43:14;96911.84;;;20.60;43.26
30873;BME280;17579;42.690;2.586;2023-04-19T12:45:42;96917.00;;;20.68;42.69
30873;BME280;17579;42.690;2.586;2023-04-19T12:48:14;96912.03;;;20.72;42.73
30873;BME280;17579;42.690;2.586;2023-04-19T12:50:45;96913.06;;;20.71;42.75
30873;BME280;17579;42.690;2.586;2023-04-19T12:53:31;96901.59;;;20.82;42.53
30873;BME280;17579;42.690;2.586;2023-04-19T12:55:57;96901.91;;;20.92;42.19
30873;BME280;17579;42.690;2.586;2023-04-19T12:58:25;96898.75;;;21.02;41.60
30873;BME280;17579;42.690;2.586;2023-04-19T13:00:58;96895.78;;;21.29;41.86
30873;BME280;17579;42.690;2.586;2023-04-19T13:03:24;96889.88;;;21.64;41.25
30873;BME280;17579;42.690;2.586;2023-04-19T13:06:13;96893.81;;;21.98;40.08
30873;BME280;17579;42.690;2.586;2023-04-19T13:09:25;96887.31;;;22.18;39.83
30873;BME280;17579;42.690;2.586;2023-04-19T13:11:53;96874.31;;;22.45;38.90
30873;BME280;17579;42.690;2.586;2023-04-19T13:14:19;96873.44;;;22.75;38.65
30873;BME280;17579;42.690;2.586;2023-04-19T13:16:48;96878.63;;;22.89;38.02
30873;BME280;17579;42.690;2.586;2023-04-19T13:19:13;96873.16;;;23.19;37.84
30873;BME280;17579;42.690;2.586;2023-04-19T13:21:42;96875.16;;;23.24;37.55
30873;BME280;17579;42.690;2.586;2023-04-19T13:24:08;96876.44;;;23.45;37.76
30873;BME280;17579;42.690;2.586;2023-04-19T13:26:37;96860.00;;;23.46;36.86
30873;BME280;17579;42.690;2.586;2023-04-19T13:29:23;96875.81;;;23.43;37.77
30873;BME280;17579;42.690;2.586;2023-04-19T13:31:50;96867.25;;;23.58;36.54
30873;BME280;17579;42.690;2.586;2023-04-19T13:34:16;96860.09;;;23.63;36.98
30873;BME280;17579;42.690;2.586;2023-04-19T13:36:43;96855.38;;;23.70;36.74
30873;BME280;17579;42.690;2.586;2023-04-19T13:39:11;96856.06;;;23.66;37.10
30873;BME280;17579;42.690;2.586;2023-04-19T13:41:44;96848.56;;;23.68;36.70
30873;BME280;17579;42.690;2.586;2023-04-19T13:44:18;96848.28;;;23.81;37.24
30873;BME280;17579;42.690;2.586;2023-04-19T13:46:51;96843.69;;;23.94;36.19
30873;BME280;17579;42.690;2.586;2023-04-19T13:49:17;96842.31;;;23.79;36.32
30873;BME280;17579;42.690;2.586;2023-04-19T13:51:49;96841.81;;;23.82;36.12
30873;BME280;17579;42.690;2.586;2023-04-19T13:54:17;96841.78;;;23.53;36.65
30873;BME280;17579;42.690;2.586;2023-04-19T13:56:43;96844.81;;;23.57;36.55